Edinburgh, United Kingdom

9:17 AM GMT on February 13, 2016 (GMT +0000)
Leith | | Change Station
CLOSE
Current Station
Personal Weather Station
Location: Edinburgh, CITY OF EDINBURGH
Elevation: 90 ft
Nearby Weather Stations

Elev 90 ft 55.98 °N, 3.18 °W | Updated 34 seconds ago

Light Rain
Light Rain
36.9 °F
Feels Like 37 °F
N
0.0
Wind Variable Wind from North
Gusts 0.0 mph

Today
High -- | Low -- °F
--% Chance of Precip.
Yesterday
High -- | Low -- °F
Precip. -- in
Pressure 29.36 in
Visibility 6.2 miles
Clouds Mostly Cloudy 700 ft
Mostly Cloudy 1600 ft
Windchill 37 °F
Dew Point 36 °F
Humidity 95%
Rainfall 0.00 in
Snow Depth Not available.
7:43 AM 5:10 PM
Waxing Crescent, 29% visible
METAR EGPH 130850Z AUTO 10009KT 9999 -RA BKN007/// BKN016/// //////CB 02/01 Q0994
Pressure 29.36 in
Visibility 6.2 miles
Clouds Mostly Cloudy 700 ft
Mostly Cloudy 1600 ft
Windchill 37 °F
Dew Point 36 °F
Humidity 95%
Rainfall 0.00 in
Snow Depth Not available.
7:43 AM 5:10 PM
Waxing Crescent, 29% visible
METAR EGPH 130850Z AUTO 10009KT 9999 -RA BKN007/// BKN016/// //////CB 02/01 Q0994

10-Day Weather Forecast

Almanac

Astronomy

Feb. 13, 2016 Rise Set
Actual Time
Civil Twilight
Nautical Twilight
Astronomical Twilight
Moon
Length of Visible Light
Length of Day
Tomorrow will be .
, % of the Moon is Illuminated

Today's Extremes

Country Highs Country Lows

Community

WunderPhotos

Upload Photos

1,892,536 photos uploaded!

WunderBlog® & News

Nearby

Air Quality

  Air Quality AQ Index Pollutant
Not available.

Snow Depth

Station Depth Elevation

Earthquake Activity

City Distance Mag. Time & Date
Minimum magnitude displayed is 2.5.

Coastal Water Temperatures

Place Temperature

Stations

Nearby Weather Stations

Station Location Temp. Windchill Dew Point Humidity Wind Precip. Elev Updated Type